createdAt,value
2018-06-01T00:01:08.480Z,3.60
2018-06-01T00:03:36.034Z,3.50
2018-06-01T00:06:03.543Z,3.80
2018-06-01T00:08:31.096Z,4.87
2018-06-01T00:10:58.606Z,3.83
2018-06-01T00:13:26.108Z,3.93
2018-06-01T00:15:53.628Z,4.00
2018-06-01T00:18:21.147Z,4.13
2018-06-01T00:20:48.694Z,4.10
2018-06-01T00:23:16.200Z,4.53
2018-06-01T00:25:43.730Z,3.87
2018-06-01T00:28:11.263Z,4.03
2018-06-01T00:30:38.812Z,4.20
2018-06-01T00:33:07.098Z,4.13
2018-06-01T00:35:34.621Z,4.60
2018-06-01T00:38:02.152Z,3.73
2018-06-01T00:40:29.661Z,4.33
2018-06-01T00:42:57.977Z,4.30
2018-06-01T00:45:25.479Z,4.63
2018-06-01T00:47:53.025Z,4.60
2018-06-01T00:50:20.545Z,4.10
2018-06-01T00:52:48.078Z,3.83
2018-06-01T00:55:25.124Z,3.97
2018-06-01T00:57:52.656Z,4.47
2018-06-01T01:00:20.160Z,4.43
2018-06-01T01:02:47.682Z,4.00
2018-06-01T01:05:15.221Z,5.20
2018-06-01T01:07:42.729Z,4.93
2018-06-01T01:10:10.251Z,4.40
2018-06-01T01:12:37.830Z,4.30
2018-06-01T01:15:05.329Z,3.80
2018-06-01T01:17:32.876Z,4.70
2018-06-01T01:20:01.211Z,4.30
2018-06-01T01:22:28.722Z,4.37
2018-06-01T01:24:57.000Z,3.97
2018-06-01T01:27:25.303Z,3.60
2018-06-01T01:29:52.805Z,4.33
2018-06-01T01:32:20.338Z,3.80
2018-06-01T01:34:47.858Z,2.90
2018-06-01T01:37:21.866Z,2.73
2018-06-01T01:39:50.136Z,3.97
2018-06-01T01:42:18.418Z,3.80
2018-06-01T01:44:46.713Z,4.23
2018-06-01T01:47:14.216Z,2.70
2018-06-01T01:49:41.747Z,2.80
2018-06-01T01:52:09.282Z,3.20
2018-06-01T01:54:36.822Z,3.73
2018-06-01T01:57:05.103Z,3.27
2018-06-01T01:59:33.388Z,2.90
2018-06-01T02:02:00.889Z,2.70
2018-06-01T02:04:28.431Z,2.53
2018-06-01T02:06:55.961Z,2.73
2018-06-01T02:09:24.238Z,3.13
2018-06-01T02:11:52.507Z,2.70
2018-06-01T02:14:20.811Z,2.67
2018-06-01T02:16:48.320Z,3.00
2018-06-01T02:19:15.838Z,3.30
2018-06-01T02:21:43.378Z,2.40
2018-06-01T02:24:10.893Z,3.17
2018-06-01T02:26:38.421Z,2.93
2018-06-01T02:29:05.962Z,2.97
2018-06-01T02:31:33.477Z,2.70
2018-06-01T02:34:00.981Z,2.63
2018-06-01T02:36:28.528Z,3.10
2018-06-01T02:38:56.045Z,2.70
2018-06-01T02:41:23.570Z,3.60
2018-06-01T02:43:51.112Z,3.57
2018-06-01T02:46:18.649Z,4.40
2018-06-01T02:48:46.921Z,4.07
2018-06-01T02:51:15.231Z,4.60
2018-06-01T02:53:42.737Z,4.00
2018-06-01T02:56:10.263Z,4.27
2018-06-01T02:58:37.796Z,5.40
2018-06-01T03:01:05.313Z,5.73
2018-06-01T03:03:32.846Z,5.00
2018-06-01T03:06:00.402Z,5.07
2018-06-01T03:08:27.927Z,4.43
2018-06-01T03:10:55.451Z,3.90
2018-06-01T03:13:22.980Z,4.10
2018-06-01T03:15:50.496Z,3.60
2018-06-01T03:18:18.784Z,3.50
2018-06-01T03:20:46.308Z,3.80
2018-06-01T03:23:13.849Z,3.83
2018-06-01T03:25:41.352Z,3.53
2018-06-01T03:28:08.895Z,3.77
2018-06-01T03:30:37.164Z,3.30
2018-06-01T03:33:05.450Z,3.93
2018-06-01T03:35:33.741Z,3.13
2018-06-01T03:38:01.270Z,3.40
2018-06-01T03:40:28.781Z,3.00
2018-06-01T03:42:56.340Z,3.43
2018-06-01T03:45:23.865Z,4.13
2018-06-01T03:47:52.152Z,3.47
2018-06-01T03:50:19.704Z,2.77
2018-06-01T03:52:47.972Z,3.63
2018-06-01T03:55:16.244Z,3.03
2018-06-01T03:57:44.558Z,3.63
2018-06-01T04:00:12.069Z,3.67
2018-06-01T04:02:39.596Z,3.40
2018-06-01T04:05:07.123Z,3.63
2018-06-01T04:07:34.651Z,3.23
2018-06-01T04:10:02.957Z,3.00
2018-06-01T04:12:30.489Z,3.57
2018-06-01T04:14:58.762Z,3.37
2018-06-01T04:17:26.302Z,3.60
2018-06-01T04:19:53.830Z,3.80
2018-06-01T04:22:21.367Z,3.50
2018-06-01T04:24:48.891Z,3.53
2018-06-01T04:27:16.428Z,3.87
2018-06-01T04:29:43.935Z,3.87
2018-06-01T04:32:12.200Z,3.43
2018-06-01T04:34:40.500Z,3.80
2018-06-01T04:37:08.013Z,5.10
2018-06-01T04:39:35.527Z,3.90
2018-06-01T04:42:03.067Z,3.73
2018-06-01T04:44:30.598Z,3.20
2018-06-01T04:46:58.096Z,3.50
2018-06-01T04:49:25.648Z,3.70
2018-06-01T04:51:53.156Z,3.57
2018-06-01T04:54:20.661Z,3.60
2018-06-01T04:56:48.194Z,3.10
2018-06-01T04:59:15.707Z,3.80
2018-06-01T05:01:43.225Z,3.40
2018-06-01T05:04:11.544Z,4.10
2018-06-01T05:06:39.058Z,4.03
2018-06-01T05:09:07.359Z,4.43
2018-06-01T05:11:34.903Z,3.43
2018-06-01T05:14:03.181Z,3.50
2018-06-01T05:16:30.691Z,3.63
2018-06-01T05:18:58.212Z,3.40
2018-06-01T05:21:25.717Z,3.83
2018-06-01T05:23:53.241Z,3.50
2018-06-01T05:26:20.778Z,3.33
2018-06-01T05:28:48.296Z,3.40
2018-06-01T05:31:15.819Z,3.50
2018-06-01T05:33:43.374Z,4.10
2018-06-01T05:36:10.875Z,3.93
2018-06-01T05:38:38.404Z,3.27
2018-06-01T05:41:05.949Z,2.90
2018-06-01T05:43:33.488Z,3.10
2018-06-01T05:46:01.770Z,3.53
2018-06-01T05:48:29.308Z,3.40
2018-06-01T05:50:57.594Z,3.00
2018-06-01T05:53:25.879Z,3.37
2018-06-01T05:55:53.416Z,3.20
2018-06-01T05:58:21.688Z,3.57
2018-06-01T06:00:49.207Z,3.27
2018-06-01T06:03:16.759Z,3.20
2018-06-01T06:05:44.270Z,3.10
2018-06-01T06:08:12.550Z,2.80
2018-06-01T06:10:40.856Z,3.27
2018-06-01T06:13:08.360Z,2.90
2018-06-01T06:15:35.881Z,2.90
2018-06-01T06:18:03.734Z,2.50
2018-06-01T06:20:31.252Z,2.60
2018-06-01T06:22:58.751Z,3.13
2018-06-01T06:25:26.269Z,2.63
2018-06-01T06:27:53.781Z,2.83
2018-06-01T06:30:21.302Z,2.27
2018-06-01T06:32:49.602Z,2.57
2018-06-01T06:35:17.113Z,2.53
2018-06-01T06:37:44.687Z,2.60
2018-06-01T06:40:12.193Z,2.70
2018-06-01T06:42:39.699Z,2.80
2018-06-01T06:45:07.204Z,2.60
2018-06-01T06:47:34.761Z,2.10
2018-06-01T06:50:02.270Z,2.37
2018-06-01T06:52:29.767Z,2.50
2018-06-01T06:54:57.301Z,2.10
2018-06-01T06:57:25.618Z,2.53
2018-06-01T06:59:53.120Z,2.90
2018-06-01T07:02:20.647Z,2.63
2018-06-01T07:04:48.152Z,2.47
2018-06-01T07:07:16.431Z,2.93
2018-06-01T07:09:44.745Z,1.83
2018-06-01T07:12:12.258Z,2.27
2018-06-01T07:14:39.801Z,2.13
2018-06-01T07:17:07.338Z,1.70
2018-06-01T07:19:34.874Z,2.27
2018-06-01T07:22:02.375Z,1.97
2018-06-01T07:24:29.912Z,2.53
2018-06-01T07:26:57.417Z,1.80
2018-06-01T07:29:25.713Z,2.00
2018-06-01T07:31:53.250Z,2.30
2018-06-01T07:34:21.531Z,2.00
2018-06-01T07:36:49.820Z,1.97
2018-06-01T07:39:18.131Z,2.90
2018-06-01T07:41:45.641Z,2.00
2018-06-01T07:44:13.917Z,1.87
2018-06-01T07:46:42.225Z,2.27
2018-06-01T07:49:09.899Z,1.83
2018-06-01T07:51:37.651Z,1.70
2018-06-01T07:54:05.384Z,2.50
2018-06-01T07:56:33.687Z,2.23
2018-06-01T07:59:01.208Z,1.90
2018-06-01T08:01:28.756Z,1.83
2018-06-01T08:03:56.256Z,1.70
2018-06-01T08:06:24.523Z,1.93
2018-06-01T08:08:52.834Z,2.40
2018-06-01T08:11:20.341Z,1.90
2018-06-01T08:13:47.870Z,1.60
2018-06-01T08:16:15.396Z,1.70
2018-06-01T08:18:42.921Z,1.93
2018-06-01T08:21:10.429Z,1.63
2018-06-01T08:23:37.952Z,1.53
2018-06-01T08:26:06.229Z,2.13
2018-06-01T08:28:34.522Z,2.17
2018-06-01T08:31:02.083Z,1.60
2018-06-01T08:33:29.595Z,1.17
2018-06-01T08:35:57.110Z,1.30
2018-06-01T08:38:24.646Z,1.60
2018-06-01T08:40:53.093Z,1.33
2018-06-01T08:43:20.613Z,1.70
2018-06-01T08:45:48.157Z,1.40
2018-06-01T08:48:15.682Z,1.43
2018-06-01T08:50:43.187Z,1.30
2018-06-01T08:53:10.733Z,1.00
2018-06-01T08:55:38.240Z,1.27
2018-06-01T08:58:05.749Z,1.53
2018-06-01T09:00:33.287Z,1.63
2018-06-01T09:03:01.558Z,1.77
2018-06-01T09:05:29.838Z,1.20
2018-06-01T09:07:58.152Z,1.47
2018-06-01T09:10:25.692Z,1.50
2018-06-01T09:12:53.954Z,1.40
2018-06-01T09:15:22.248Z,1.20
2018-06-01T09:17:49.747Z,1.70
2018-06-01T09:20:17.261Z,1.50
2018-06-01T09:22:44.789Z,1.40
2018-06-01T09:25:12.316Z,1.53
2018-06-01T09:27:39.828Z,1.63
2018-06-01T09:30:08.135Z,1.20
2018-06-01T09:32:35.641Z,2.10
2018-06-01T09:35:03.154Z,2.37
2018-06-01T09:37:30.682Z,1.40
2018-06-01T09:39:58.968Z,1.53
2018-06-01T09:42:26.471Z,1.73
2018-06-01T09:44:54.020Z,1.23
2018-06-01T09:47:21.534Z,1.33
2018-06-01T09:49:49.817Z,2.13
2018-06-01T09:52:17.375Z,1.43
2018-06-01T09:54:44.881Z,1.50
2018-06-01T09:57:12.399Z,2.07
2018-06-01T09:59:39.970Z,1.87
2018-06-01T10:02:07.473Z,1.63
2018-06-01T10:04:35.000Z,1.67
2018-06-01T10:07:02.532Z,1.77
2018-06-01T10:09:30.047Z,2.00
2018-06-01T10:11:57.548Z,1.90
2018-06-01T10:14:25.094Z,1.60
2018-06-01T10:16:53.364Z,1.53
2018-06-01T10:19:20.910Z,1.37
2018-06-01T10:21:48.450Z,1.20
2018-06-01T10:24:15.955Z,1.83
2018-06-01T10:26:43.473Z,1.80
2018-06-01T10:29:11.003Z,1.43
2018-06-01T10:31:38.522Z,1.70
2018-06-01T10:34:06.809Z,2.00
2018-06-01T10:36:34.346Z,1.73
2018-06-01T10:39:01.878Z,2.07
2018-06-01T10:41:29.389Z,1.67
2018-06-01T10:43:56.942Z,1.50
2018-06-01T10:46:24.447Z,1.50
2018-06-01T10:48:51.977Z,1.70
2018-06-01T10:51:19.496Z,1.50
2018-06-01T10:53:47.765Z,1.50
2018-06-01T10:56:15.280Z,1.70
2018-06-01T10:58:42.817Z,1.63
2018-06-01T11:01:10.342Z,2.00
2018-06-01T11:03:37.858Z,1.60
2018-06-01T11:06:05.394Z,2.00
2018-06-01T11:08:32.933Z,2.00
2018-06-01T11:11:01.211Z,1.37
2018-06-01T11:13:29.505Z,2.17
2018-06-01T11:15:57.032Z,1.63
2018-06-01T11:18:24.539Z,1.83
2018-06-01T11:20:52.073Z,2.00
2018-06-01T11:23:20.358Z,2.13
2018-06-01T11:25:48.631Z,1.73
2018-06-01T11:28:16.165Z,1.60
2018-06-01T11:30:44.455Z,1.73
2018-06-01T11:33:12.732Z,1.80
2018-06-01T11:35:41.036Z,1.40
2018-06-01T11:38:08.581Z,1.57
2018-06-01T11:40:36.056Z,1.97
2018-06-01T11:43:03.598Z,2.07
2018-06-01T11:45:31.114Z,1.60
2018-06-01T11:47:58.649Z,2.53
2018-06-01T11:50:26.190Z,1.67
2018-06-01T11:52:53.724Z,1.80
2018-06-01T11:55:21.245Z,1.73
2018-06-01T11:57:48.797Z,1.60
2018-06-01T12:00:16.310Z,1.70
2018-06-01T12:02:43.819Z,1.70
2018-06-01T12:05:11.362Z,1.60
2018-06-01T12:07:38.885Z,1.70
2018-06-01T12:10:06.390Z,1.90
2018-06-01T12:12:33.929Z,1.60
2018-06-01T12:15:01.445Z,1.50
2018-06-01T12:17:29.780Z,1.83
2018-06-01T12:19:57.268Z,1.90
2018-06-01T12:22:25.544Z,1.80
2018-06-01T12:24:53.048Z,1.73
2018-06-01T12:27:20.586Z,2.13
2018-06-01T12:29:48.605Z,2.30
2018-06-01T12:32:16.118Z,1.70
2018-06-01T12:34:44.417Z,1.73
2018-06-01T12:37:11.929Z,1.33
2018-06-01T12:39:40.219Z,2.10
2018-06-01T12:42:08.528Z,1.60
2018-06-01T12:44:36.028Z,2.30
2018-06-01T12:47:03.554Z,1.70
2018-06-01T12:49:31.075Z,1.87
2018-06-01T12:51:59.354Z,2.00
2018-06-01T12:54:26.871Z,1.63
2018-06-01T12:56:54.442Z,1.53
2018-06-01T12:59:22.720Z,2.17
2018-06-01T13:01:50.282Z,2.57
2018-06-01T13:04:18.839Z,2.10
2018-06-01T13:06:46.419Z,2.13
2018-06-01T13:09:13.934Z,2.17
2018-06-01T13:11:41.477Z,2.30
2018-06-01T13:14:09.011Z,2.30
2018-06-01T13:16:37.554Z,2.10
2018-06-01T13:19:05.764Z,2.10
2018-06-01T13:21:33.309Z,2.07
2018-06-01T13:24:00.827Z,3.20
2018-06-01T13:26:28.370Z,2.70
2018-06-01T13:28:55.893Z,2.23
2018-06-01T13:31:23.417Z,4.20
2018-06-01T13:33:52.303Z,2.57
2018-06-01T13:36:19.859Z,3.43
2018-06-01T13:38:47.356Z,2.40
2018-06-01T13:41:15.674Z,2.67
2018-06-01T13:43:43.186Z,2.27
2018-06-01T13:46:10.692Z,2.90
2018-06-01T13:48:38.238Z,2.20
2018-06-01T13:51:05.753Z,2.53
2018-06-01T13:53:34.016Z,2.77
2018-06-01T13:56:01.544Z,2.17
2018-06-01T13:58:29.060Z,2.27
2018-06-01T14:00:56.560Z,2.27
2018-06-01T14:03:24.085Z,2.27
2018-06-01T14:05:52.365Z,2.90
2018-06-01T14:08:20.649Z,2.40
2018-06-01T14:10:48.950Z,2.37
2018-06-01T14:13:16.479Z,2.00
2018-06-01T14:15:44.756Z,2.77
2018-06-01T14:18:13.063Z,2.67
2018-06-01T14:20:40.575Z,2.40
2018-06-01T14:23:08.075Z,3.10
2018-06-01T14:25:35.615Z,2.70
2018-06-01T14:28:04.101Z,2.90
2018-06-01T14:30:31.628Z,2.83
2018-06-01T14:32:59.156Z,3.17
2018-06-01T14:35:26.759Z,2.70
2018-06-01T14:37:54.273Z,3.07
2018-06-01T14:40:21.800Z,2.43
2018-06-01T14:42:49.318Z,2.50
2018-06-01T14:45:16.848Z,2.33
2018-06-01T14:47:44.389Z,2.13
2018-06-01T14:50:11.910Z,2.53
2018-06-01T14:52:39.430Z,2.87
2018-06-01T14:55:06.956Z,2.63
2018-06-01T14:57:34.481Z,2.80
2018-06-01T15:00:01.993Z,2.00
2018-06-01T15:02:29.543Z,2.27
2018-06-01T15:04:57.059Z,2.20
2018-06-01T15:07:25.361Z,2.60
2018-06-01T15:09:53.677Z,2.50
2018-06-01T15:12:21.181Z,2.77
2018-06-01T15:14:48.703Z,3.00
2018-06-01T15:17:16.243Z,2.60
2018-06-01T15:19:43.769Z,2.40
2018-06-01T15:22:11.292Z,2.87
2018-06-01T15:24:38.844Z,2.67
2018-06-01T15:27:06.358Z,3.03
2018-06-01T15:29:33.892Z,2.70
2018-06-01T15:32:02.190Z,2.87
2018-06-01T15:34:29.711Z,2.77
2018-06-01T15:36:57.216Z,2.73
2018-06-01T15:39:24.778Z,2.20
2018-06-01T15:41:52.291Z,3.20
2018-06-01T15:44:19.819Z,2.40
2018-06-01T15:46:47.358Z,2.70
2018-06-01T15:49:14.897Z,2.57
2018-06-01T15:51:43.177Z,2.73
2018-06-01T15:54:11.478Z,3.07
2018-06-01T15:56:39.001Z,3.03
2018-06-01T15:59:07.268Z,2.70
2018-06-01T16:01:35.559Z,2.53
2018-06-01T16:04:03.839Z,3.00
2018-06-01T16:06:32.108Z,2.80
2018-06-01T16:09:00.787Z,1.60
2018-06-01T16:11:29.095Z,2.77
2018-06-01T16:13:56.618Z,3.07
2018-06-01T16:16:24.177Z,2.83
2018-06-01T16:18:52.488Z,2.77
2018-06-01T16:21:20.003Z,2.73
2018-06-01T16:23:47.532Z,3.20
2018-06-01T16:26:15.055Z,2.90
2018-06-01T16:28:42.609Z,2.90
2018-06-01T16:31:10.896Z,3.10
2018-06-01T16:33:38.396Z,2.90
2018-06-01T16:36:05.910Z,3.00
2018-06-01T16:38:33.440Z,3.30
2018-06-01T16:41:01.722Z,2.80
2018-06-01T16:43:29.998Z,3.37
2018-06-01T16:45:58.301Z,2.70
2018-06-01T16:48:25.808Z,2.67
2018-06-01T16:50:53.317Z,2.73
2018-06-01T16:53:20.869Z,3.03
2018-06-01T16:55:48.393Z,6.10
2018-06-01T16:58:15.905Z,3.40
2018-06-01T17:00:43.436Z,3.20
2018-06-01T17:03:10.968Z,3.47
2018-06-01T17:05:38.486Z,3.03
2018-06-01T17:08:06.093Z,3.00
2018-06-01T17:10:33.577Z,3.50
2018-06-01T17:13:01.861Z,2.80
2018-06-01T17:15:29.447Z,2.60
2018-06-01T17:17:56.929Z,3.80
2018-06-01T17:20:24.633Z,3.43
2018-06-01T17:22:52.940Z,2.90
2018-06-01T17:25:20.453Z,3.57
2018-06-01T17:27:48.741Z,3.60
2018-06-01T17:30:17.036Z,3.17
2018-06-01T17:32:44.541Z,3.77
2018-06-01T17:37:46.943Z,3.07
2018-06-01T17:40:14.443Z,2.67
2018-06-01T17:42:41.978Z,3.63
2018-06-01T17:45:10.286Z,3.07
2018-06-01T17:47:37.795Z,2.97
2018-06-01T17:50:05.316Z,2.63
2018-06-01T17:52:32.869Z,3.60
2018-06-01T17:55:00.372Z,3.77
2018-06-01T17:57:27.886Z,3.20
2018-06-01T17:59:55.447Z,2.90
2018-06-01T18:02:22.993Z,4.13
2018-06-01T18:04:50.489Z,3.77
2018-06-01T18:07:18.020Z,3.87
2018-06-01T18:09:46.295Z,3.80
2018-06-01T18:12:13.812Z,3.50
2018-06-01T18:14:42.138Z,3.53
2018-06-01T18:17:09.640Z,3.40
2018-06-01T18:19:37.152Z,3.87
2018-06-01T18:22:04.686Z,2.80
2018-06-01T18:24:32.241Z,3.17
2018-06-01T18:26:59.744Z,3.90
2018-06-01T18:29:27.264Z,2.93
2018-06-01T18:31:54.778Z,3.30
2018-06-01T18:34:22.284Z,4.10
2018-06-01T18:36:49.830Z,3.20
2018-06-01T18:39:18.127Z,3.77
2018-06-01T18:41:46.517Z,3.17
2018-06-01T18:44:14.041Z,3.40
2018-06-01T18:46:42.341Z,3.83
2018-06-01T18:49:09.854Z,3.40
2018-06-01T18:51:37.390Z,3.90
2018-06-01T18:54:06.240Z,3.00
2018-06-01T18:56:36.040Z,3.70
2018-06-01T18:59:04.809Z,3.20
2018-06-01T19:01:32.749Z,3.40
2018-06-01T19:04:01.306Z,3.70
2018-06-01T19:06:28.915Z,4.13
2018-06-01T19:08:56.458Z,4.07
2018-06-01T19:11:24.009Z,3.33
2018-06-01T19:13:51.550Z,4.30
2018-06-01T19:16:19.072Z,3.60
2018-06-01T19:18:47.359Z,3.73
2018-06-01T19:21:14.896Z,3.87
2018-06-01T19:23:42.457Z,3.67
2018-06-01T19:26:09.951Z,4.03
2018-06-01T19:28:37.484Z,3.20
2018-06-01T19:31:05.748Z,3.50
2018-06-01T19:33:34.020Z,4.80
2018-06-01T19:36:01.549Z,3.37
2018-06-01T19:38:29.075Z,3.97
2018-06-01T19:40:56.576Z,4.50
2018-06-01T19:43:24.146Z,4.10
2018-06-01T19:45:51.640Z,3.87
2018-06-01T19:48:19.271Z,4.00
2018-06-01T19:50:46.798Z,3.83
2018-06-01T19:53:14.314Z,5.20
2018-06-01T19:55:41.841Z,3.93
2018-06-01T19:58:09.377Z,4.40
2018-06-01T20:00:36.884Z,4.50
2018-06-01T20:03:05.196Z,4.50
2018-06-01T20:05:32.734Z,4.33
2018-06-01T20:08:00.239Z,3.90
2018-06-01T20:10:28.539Z,4.30
2018-06-01T20:12:57.186Z,3.90
2018-06-01T20:15:24.702Z,4.27
2018-06-01T20:17:52.967Z,4.63
2018-06-01T20:20:22.124Z,4.50
2018-06-01T20:22:51.121Z,4.03
2018-06-01T20:25:18.715Z,3.33
2018-06-01T20:27:47.160Z,3.70
2018-06-01T20:30:14.857Z,3.67
2018-06-01T20:32:43.197Z,3.97
2018-06-01T20:35:10.741Z,3.50
2018-06-01T20:37:38.256Z,4.17
2018-06-01T20:40:06.528Z,3.23
2018-06-01T20:42:34.827Z,4.00
2018-06-01T20:45:03.091Z,3.87
2018-06-01T20:47:31.375Z,4.20
2018-06-01T20:49:59.681Z,4.50
2018-06-01T20:52:27.213Z,4.27
2018-06-01T20:54:54.737Z,4.03
2018-06-01T20:57:22.281Z,4.77
2018-06-01T20:59:49.784Z,4.70
2018-06-01T21:02:18.070Z,4.70
2018-06-01T21:04:45.602Z,3.93
2018-06-01T21:07:13.876Z,3.70
2018-06-01T21:09:41.408Z,4.23
2018-06-01T21:12:08.941Z,4.13
2018-06-01T21:14:36.445Z,4.13
2018-06-01T21:17:03.965Z,3.83
2018-06-01T21:19:31.493Z,3.77
2018-06-01T21:21:59.018Z,4.43
2018-06-01T21:24:26.537Z,4.27
2018-06-01T21:26:54.094Z,4.53
2018-06-01T21:29:21.608Z,4.30
2018-06-01T21:31:49.879Z,4.73
2018-06-01T21:34:17.415Z,3.97
2018-06-01T21:36:44.935Z,4.20
2018-06-01T21:39:12.449Z,3.57
2018-06-01T21:41:40.770Z,3.70
2018-06-01T21:44:08.281Z,3.50
2018-06-01T21:46:35.791Z,4.43
2018-06-01T21:49:03.330Z,3.20
2018-06-01T21:51:31.599Z,3.80
2018-06-01T21:53:59.879Z,4.47
2018-06-01T21:56:28.182Z,3.77
2018-06-01T21:58:55.698Z,3.60
2018-06-01T22:01:23.207Z,4.10
2018-06-01T22:03:50.741Z,4.00
2018-06-01T22:06:19.049Z,3.90
2018-06-01T22:08:46.557Z,3.83
2018-06-01T22:11:14.858Z,3.50
2018-06-01T22:13:42.369Z,3.93
2018-06-01T22:16:09.903Z,3.67
2018-06-01T22:18:37.432Z,4.33
2018-06-01T22:21:04.957Z,4.90
2018-06-01T22:23:32.492Z,4.00
2018-06-01T22:26:00.045Z,4.00
2018-06-01T22:28:27.553Z,5.00
2018-06-01T22:30:55.846Z,3.90
2018-06-01T22:33:23.381Z,5.70
2018-06-01T22:35:51.676Z,5.10
2018-06-01T22:38:19.202Z,4.40
2018-06-01T22:40:46.746Z,4.00
2018-06-01T22:43:14.257Z,4.30
2018-06-01T22:45:41.777Z,4.90
2018-06-01T22:48:09.300Z,3.60
2018-06-01T22:50:36.804Z,4.07
2018-06-01T22:53:05.084Z,4.70
2018-06-01T22:55:33.397Z,4.30
2018-06-01T22:58:00.912Z,4.30
2018-06-01T23:00:31.085Z,4.50
2018-06-01T23:02:58.627Z,3.77
2018-06-01T23:05:26.159Z,4.00
2018-06-01T23:07:54.440Z,4.53
2018-06-01T23:10:22.859Z,4.10
2018-06-01T23:12:50.378Z,4.40
2018-06-01T23:15:18.644Z,4.10
2018-06-01T23:17:46.183Z,4.53
2018-06-01T23:20:13.688Z,4.40
2018-06-01T23:22:41.206Z,3.70
2018-06-01T23:25:08.760Z,4.50
2018-06-01T23:27:36.263Z,3.50
2018-06-01T23:30:03.768Z,4.17
2018-06-01T23:32:31.312Z,3.77
2018-06-01T23:34:58.825Z,4.53
2018-06-01T23:37:26.369Z,3.87
2018-06-01T23:39:53.895Z,3.53
2018-06-01T23:42:21.421Z,4.17
2018-06-01T23:44:48.937Z,3.50
2018-06-01T23:47:16.463Z,3.90
2018-06-01T23:49:43.974Z,4.80
2018-06-01T23:52:11.493Z,4.67
2018-06-01T23:54:39.026Z,4.30
2018-06-01T23:57:06.531Z,4.43
2018-06-01T23:59:34.048Z,3.57
